createdAt,value
2022-08-09T00:00:11.220Z,19.2
2022-08-09T00:06:16.737Z,19.1
2022-08-09T00:10:10.799Z,19
2022-08-09T00:15:13.814Z,19
2022-08-09T00:20:12.145Z,18.9
2022-08-09T00:25:10.354Z,18.8
2022-08-09T00:30:23.529Z,18.8
2022-08-09T00:35:10.107Z,18.8
2022-08-09T00:40:14.235Z,18.7
2022-08-09T00:45:14.793Z,18.7
2022-08-09T00:50:14.424Z,18.7
2022-08-09T00:55:10.339Z,18.8
2022-08-09T01:00:20.454Z,18.8
2022-08-09T01:05:13.846Z,18.6
2022-08-09T01:10:10.117Z,18.6
2022-08-09T01:15:16.769Z,18.4
2022-08-09T01:20:10.107Z,18.3
2022-08-09T01:25:10.111Z,18.3
2022-08-09T01:30:28.900Z,18.3
2022-08-09T01:35:18.353Z,18.3
2022-08-09T01:40:10.118Z,18.2
2022-08-09T01:45:10.102Z,18.2
2022-08-09T01:50:10.111Z,18.1
2022-08-09T01:55:10.104Z,18
2022-08-09T02:00:19.392Z,18
2022-08-09T02:05:11.925Z,17.9
2022-08-09T02:10:10.110Z,17.8
2022-08-09T02:15:11.890Z,17.8
2022-08-09T02:20:10.126Z,17.7
2022-08-09T02:25:10.107Z,17.5
2022-08-09T02:30:10.110Z,17.4
2022-08-09T02:35:10.216Z,17.4
2022-08-09T02:40:10.394Z,17.4
2022-08-09T02:45:10.114Z,17.3
2022-08-09T02:50:10.107Z,17.3
2022-08-09T02:55:19.899Z,17.2
2022-08-09T03:00:11.578Z,17.1
2022-08-09T03:05:10.099Z,17.1
2022-08-09T03:10:10.113Z,17.1
2022-08-09T03:15:10.112Z,16.9
2022-08-09T03:20:11.388Z,16.9
2022-08-09T03:25:21.590Z,16.9
2022-08-09T03:30:10.109Z,16.9
2022-08-09T03:35:14.868Z,16.8
2022-08-09T03:40:10.107Z,16.7
2022-08-09T03:45:10.104Z,16.8
2022-08-09T03:50:10.110Z,16.7
2022-08-09T03:55:10.107Z,16.6
2022-08-09T04:00:10.112Z,16.5
2022-08-09T04:05:21.031Z,16.4
2022-08-09T04:10:10.121Z,16.4
2022-08-09T04:15:11.741Z,16.4
2022-08-09T04:20:10.115Z,16.4
2022-08-09T04:25:10.111Z,16.5
2022-08-09T04:30:10.112Z,16.5
2022-08-09T04:35:10.312Z,16.5
2022-08-09T04:40:10.106Z,16.6
2022-08-09T04:45:10.110Z,16.8
2022-08-09T04:50:10.108Z,16.9
2022-08-09T04:55:12.143Z,17
2022-08-09T05:00:10.113Z,17.1
2022-08-09T05:05:10.261Z,17.2
2022-08-09T05:10:10.107Z,17.3
2022-08-09T05:15:11.271Z,17.3
2022-08-09T05:20:10.118Z,17.4
2022-08-09T05:25:10.112Z,17.6
2022-08-09T05:30:10.114Z,17.8
2022-08-09T05:35:10.105Z,17.9
2022-08-09T05:40:10.162Z,18.2
2022-08-09T05:45:10.113Z,18.3
2022-08-09T05:50:24.935Z,18.6
2022-08-09T05:55:12.894Z,18.6
2022-08-09T06:00:10.124Z,18.6
2022-08-09T06:05:10.105Z,18.8
2022-08-09T06:10:15.777Z,19
2022-08-09T06:15:10.271Z,19
2022-08-09T06:20:10.122Z,19
2022-08-09T06:25:12.396Z,19.7
2022-08-09T06:30:10.295Z,19.7
2022-08-09T06:35:10.108Z,19.8
2022-08-09T06:40:20.308Z,20
2022-08-09T06:46:05.789Z,20.3
2022-08-09T06:50:12.561Z,20.9
2022-08-09T06:55:12.721Z,20.7
2022-08-09T07:00:53.655Z,21.1
2022-08-09T07:05:10.107Z,21.4
2022-08-09T07:10:19.693Z,21.5
2022-08-09T07:15:53.530Z,21.7
2022-08-09T07:20:10.117Z,21.8
2022-08-09T07:25:10.126Z,22
2022-08-09T07:30:10.123Z,22.2
2022-08-09T07:35:11.741Z,22.4
2022-08-09T07:40:10.155Z,22.6
2022-08-09T07:45:15.120Z,22.7
2022-08-09T07:50:10.113Z,22.9
2022-08-09T07:55:10.113Z,23
2022-08-09T08:00:10.123Z,23.2
2022-08-09T08:05:11.505Z,23.3
2022-08-09T08:10:10.721Z,24.1
2022-08-09T08:15:10.104Z,24
2022-08-09T08:20:12.483Z,23.9
2022-08-09T08:25:13.358Z,24.2
2022-08-09T08:30:11.030Z,24.2
2022-08-09T08:35:10.114Z,24.7
2022-08-09T08:40:10.113Z,24.6
2022-08-09T08:45:11.994Z,25
2022-08-09T08:50:10.109Z,25
2022-08-09T08:55:10.127Z,25.3
2022-08-09T09:00:12.991Z,25.6
2022-08-09T09:05:11.995Z,25.4
2022-08-09T09:10:10.159Z,25.6
2022-08-09T09:15:10.111Z,25.6
2022-08-09T09:20:10.108Z,25.5
2022-08-09T09:26:02.779Z,25.6
2022-08-09T09:30:14.477Z,25.6
2022-08-09T09:35:10.148Z,25.6
2022-08-09T09:40:10.195Z,25.8
2022-08-09T09:45:10.110Z,25.7
2022-08-09T09:50:14.015Z,25.8
2022-08-09T09:55:16.914Z,25.9
2022-08-09T10:00:10.128Z,25.7
2022-08-09T10:05:10.106Z,25.8
2022-08-09T10:10:10.112Z,26.7
2022-08-09T10:15:10.742Z,26.2
2022-08-09T10:20:10.960Z,26.2
2022-08-09T10:25:11.506Z,26.5
2022-08-09T10:31:15.819Z,26.3
2022-08-09T10:35:10.109Z,26.4
2022-08-09T10:40:11.878Z,26.5
2022-08-09T10:45:10.822Z,26.4
2022-08-09T10:50:10.153Z,26.3
2022-08-09T10:55:10.115Z,26.7
2022-08-09T11:00:10.115Z,26.6
2022-08-09T11:05:10.171Z,26.6
2022-08-09T11:10:10.104Z,26.9
2022-08-09T11:15:10.103Z,26.8
2022-08-09T11:20:20.685Z,26.7
2022-08-09T11:25:10.312Z,27.3
2022-08-09T11:30:33.197Z,26.9
2022-08-09T11:35:10.123Z,26.9
2022-08-09T11:40:10.105Z,27.3
2022-08-09T11:45:10.106Z,27.3
2022-08-09T11:50:54.579Z,27.3
2022-08-09T11:55:10.108Z,27.3
2022-08-09T12:00:15.765Z,27.3
2022-08-09T12:05:11.059Z,27.6
2022-08-09T12:10:14.249Z,27.4
2022-08-09T12:15:10.113Z,27.6
2022-08-09T12:20:10.103Z,27.8
2022-08-09T12:25:10.113Z,27.1
2022-08-09T12:30:35.998Z,27.5
2022-08-09T12:35:11.012Z,27.9
2022-08-09T12:40:10.108Z,28.2
2022-08-09T12:45:32.933Z,27.9
2022-08-09T12:50:10.110Z,27.9
2022-08-09T12:56:13.124Z,28
2022-08-09T13:00:10.113Z,27.9
2022-08-09T13:05:10.104Z,27.7
2022-08-09T13:10:10.112Z,28.1
2022-08-09T13:15:10.100Z,28.2
2022-08-09T13:20:14.203Z,28.2
2022-08-09T13:25:11.996Z,28.3
2022-08-09T13:30:39.291Z,28.2
2022-08-09T13:35:11.643Z,28.1
2022-08-09T13:41:21.442Z,27.9
2022-08-09T13:45:12.210Z,28
2022-08-09T13:50:12.454Z,28.3
2022-08-09T13:55:13.591Z,28.1
2022-08-09T14:00:10.115Z,28.9
2022-08-09T14:05:10.202Z,28.6
2022-08-09T14:10:17.102Z,28.5
2022-08-09T14:16:02.095Z,28.6
2022-08-09T14:20:10.102Z,28.6
2022-08-09T14:25:11.023Z,28.8
2022-08-09T14:30:15.371Z,28.5
2022-08-09T14:35:10.108Z,28.6
2022-08-09T14:40:10.187Z,28.6
2022-08-09T14:45:15.052Z,28.5
2022-08-09T14:50:11.006Z,28.6
2022-08-09T14:55:10.119Z,28.4
2022-08-09T15:00:10.127Z,28.5
2022-08-09T15:05:10.108Z,28.5
2022-08-09T15:10:10.896Z,28.8
2022-08-09T15:15:10.098Z,28.6
2022-08-09T15:20:11.725Z,28.5
2022-08-09T15:25:10.113Z,28.7
2022-08-09T15:30:49.841Z,29.2
2022-08-09T15:35:17.993Z,29.3
2022-08-09T15:40:11.570Z,28.8
2022-08-09T15:45:10.105Z,28.6
2022-08-09T15:50:10.107Z,28.7
2022-08-09T15:55:10.100Z,28.7
2022-08-09T16:00:11.063Z,28.5
2022-08-09T16:05:10.103Z,28.6
2022-08-09T16:10:11.008Z,28.7
2022-08-09T16:16:04.114Z,28.4
2022-08-09T16:20:10.174Z,28
2022-08-09T16:25:10.105Z,28.2
2022-08-09T16:30:15.190Z,28.5
2022-08-09T16:35:11.201Z,28.4
2022-08-09T16:40:10.294Z,28.4
2022-08-09T16:45:10.114Z,28.2
2022-08-09T16:50:30.703Z,27.7
2022-08-09T16:55:11.997Z,27.5
2022-08-09T17:00:10.116Z,27.4
2022-08-09T17:05:10.103Z,27.5
2022-08-09T17:10:10.129Z,27.4
2022-08-09T17:15:18.078Z,27.4
2022-08-09T17:20:29.385Z,27.3
2022-08-09T17:25:11.515Z,27.3
2022-08-09T17:30:12.705Z,27.4
2022-08-09T17:35:11.132Z,27.3
2022-08-09T17:40:17.114Z,27
2022-08-09T17:45:15.746Z,27
2022-08-09T17:50:14.216Z,26.9
2022-08-09T17:55:10.108Z,26.7
2022-08-09T18:00:10.113Z,26.5
2022-08-09T18:05:12.890Z,26.3
2022-08-09T18:10:10.128Z,26.2
2022-08-09T18:15:11.952Z,26
2022-08-09T18:20:53.087Z,25.9
2022-08-09T18:25:10.103Z,25.7
2022-08-09T18:30:34.217Z,25.5
2022-08-09T18:35:10.110Z,25.1
2022-08-09T18:40:10.130Z,25.1
2022-08-09T18:45:10.106Z,24.4
2022-08-09T18:50:10.209Z,24.1
2022-08-09T18:55:13.385Z,23.9
2022-08-09T19:00:10.134Z,23.6
2022-08-09T19:05:15.168Z,23.5
2022-08-09T19:10:13.457Z,23.4
2022-08-09T19:15:10.103Z,23.3
2022-08-09T19:20:10.107Z,23
2022-08-09T19:25:27.132Z,23
2022-08-09T19:30:21.994Z,23.2
2022-08-09T19:35:10.102Z,23.2
2022-08-09T19:40:10.188Z,23
2022-08-09T19:45:10.119Z,22.7
2022-08-09T19:50:49.946Z,22.6
2022-08-09T19:55:10.109Z,22.4
2022-08-09T20:00:10.217Z,22.2
2022-08-09T20:05:11.686Z,22
2022-08-09T20:10:17.507Z,22
2022-08-09T20:15:10.324Z,22.1
2022-08-09T20:20:10.115Z,22.1
2022-08-09T20:25:10.109Z,21.9
2022-08-09T20:30:10.124Z,21.8
2022-08-09T20:35:10.112Z,21.7
2022-08-09T20:40:14.244Z,21.6
2022-08-09T20:45:58.214Z,21.6
2022-08-09T20:50:10.111Z,21.5
2022-08-09T20:55:10.104Z,21.8
2022-08-09T21:00:21.165Z,21.7
2022-08-09T21:05:50.267Z,21.5
2022-08-09T21:10:10.986Z,21.4
2022-08-09T21:15:10.896Z,21.4
2022-08-09T21:20:19.701Z,21.4
2022-08-09T21:25:10.110Z,21.3
2022-08-09T21:30:10.634Z,21.1
2022-08-09T21:35:10.120Z,21.1
2022-08-09T21:40:10.723Z,21
2022-08-09T21:45:10.120Z,20.9
2022-08-09T21:50:10.127Z,20.9
2022-08-09T21:55:10.116Z,20.8
2022-08-09T22:00:10.115Z,20.7
2022-08-09T22:05:17.011Z,20.7
2022-08-09T22:10:10.109Z,20.7
2022-08-09T22:15:13.868Z,20.7
2022-08-09T22:20:10.125Z,20.6
2022-08-09T22:26:04.945Z,20.6
2022-08-09T22:30:10.114Z,20.5
2022-08-09T22:36:00.620Z,20.4
2022-08-09T22:40:10.258Z,20.4
2022-08-09T22:48:06.612Z,20.3
2022-08-09T22:50:10.109Z,20.3
2022-08-09T22:55:10.112Z,20.2
2022-08-09T23:00:11.990Z,20
2022-08-09T23:05:10.112Z,19.9
2022-08-09T23:10:10.118Z,19.9
2022-08-09T23:15:10.107Z,19.8
2022-08-09T23:20:10.114Z,19.7
2022-08-09T23:25:10.115Z,19.7
2022-08-09T23:30:10.119Z,19.6
2022-08-09T23:35:10.104Z,19.6
2022-08-09T23:40:10.104Z,19.5
2022-08-09T23:45:10.104Z,19.5
2022-08-09T23:50:10.120Z,19.4
2022-08-09T23:55:10.117Z,19.3
